createdAt,value
2022-12-14T00:01:21.673Z,100332.47
2022-12-14T00:03:32.345Z,100337.75
2022-12-14T00:05:34.441Z,100329.81
2022-12-14T00:07:37.277Z,100330.25
2022-12-14T00:09:39.196Z,100326.56
2022-12-14T00:11:42.308Z,100332.16
2022-12-14T00:13:45.534Z,100330.09
2022-12-14T00:15:53.088Z,100318.06
2022-12-14T00:17:56.521Z,100324.13
2022-12-14T00:19:58.446Z,100322.94
2022-12-14T00:22:00.312Z,100320.19
2022-12-14T00:24:02.358Z,100319.31
2022-12-14T00:26:27.794Z,100332.25
2022-12-14T00:28:30.721Z,100320.50
2022-12-14T00:30:32.626Z,100330.75
2022-12-14T00:32:35.676Z,100329.00
2022-12-14T00:34:38.627Z,100317.00
2022-12-14T00:36:40.515Z,100328.53
2022-12-14T00:38:43.413Z,100321.31
2022-12-14T00:40:56.426Z,100324.72
2022-12-14T00:43:12.257Z,100324.28
2022-12-14T00:45:21.459Z,100327.78
2022-12-14T00:47:26.491Z,100330.34
2022-12-14T00:49:30.476Z,100322.69
2022-12-14T00:51:32.434Z,100325.38
2022-12-14T00:53:38.375Z,100322.19
2022-12-14T00:55:44.485Z,100315.91
2022-12-14T00:57:53.619Z,100320.75
2022-12-14T01:00:02.526Z,100323.44
2022-12-14T01:02:06.032Z,100318.06
2022-12-14T01:04:21.818Z,100321.28
2022-12-14T01:06:23.866Z,100321.84
2022-12-14T01:08:35.959Z,100321.31
2022-12-14T01:10:41.220Z,100323.06
2022-12-14T01:12:43.389Z,100327.16
2022-12-14T01:14:46.512Z,100318.94
2022-12-14T01:16:49.457Z,100317.19
2022-12-14T01:18:51.399Z,100317.25
2022-12-14T01:21:18.628Z,100315.69
2022-12-14T01:23:20.554Z,100308.03
2022-12-14T01:25:22.624Z,100317.41
2022-12-14T01:27:24.490Z,100310.72
2022-12-14T01:29:26.399Z,100318.34
2022-12-14T01:31:33.437Z,100317.28
2022-12-14T01:33:39.747Z,100312.16
2022-12-14T01:35:41.641Z,100316.41
2022-12-14T01:37:43.521Z,100318.28
2022-12-14T01:39:45.436Z,100310.88
2022-12-14T01:41:50.402Z,100316.41
2022-12-14T01:43:56.631Z,100308.91
2022-12-14T01:46:04.352Z,100317.53
2022-12-14T01:48:11.954Z,100313.19
2022-12-14T01:50:35.798Z,100307.81
2022-12-14T01:52:45.320Z,100310.88
2022-12-14T01:55:02.299Z,100310.81
2022-12-14T01:57:04.518Z,100301.91
2022-12-14T01:59:12.177Z,100302.03
2022-12-14T02:01:15.515Z,100301.53
2022-12-14T02:03:31.671Z,100302.84
2022-12-14T02:05:38.324Z,100299.81
2022-12-14T02:07:42.826Z,100306.94
2022-12-14T02:09:56.190Z,100296.19
2022-12-14T02:12:10.171Z,100303.78
2022-12-14T02:14:15.566Z,100314.44
2022-12-14T02:16:19.625Z,100309.03
2022-12-14T02:18:27.886Z,100315.72
2022-12-14T02:20:44.621Z,100311.94
2022-12-14T02:23:22.269Z,100316.81
2022-12-14T02:25:40.105Z,100313.09
2022-12-14T02:28:09.691Z,100311.53
2022-12-14T02:30:20.695Z,100306.97
2022-12-14T02:32:42.486Z,100311.69
2022-12-14T02:35:04.306Z,100300.59
2022-12-14T02:37:18.168Z,100302.94
2022-12-14T02:39:57.370Z,100311.00
2022-12-14T02:42:17.597Z,100310.00
2022-12-14T02:45:01.647Z,100318.56
2022-12-14T02:47:23.525Z,100319.66
2022-12-14T02:49:28.348Z,100315.16
2022-12-14T02:51:37.353Z,100315.09
2022-12-14T02:53:55.046Z,100322.16
2022-12-14T02:56:02.656Z,100311.19
2022-12-14T02:58:29.125Z,100308.72
2022-12-14T03:00:34.075Z,100308.00
2022-12-14T03:02:38.832Z,100307.69
2022-12-14T03:04:47.732Z,100318.19
2022-12-14T03:07:03.810Z,100318.78
2022-12-14T03:09:13.774Z,100314.16
2022-12-14T03:11:23.939Z,100304.53
2022-12-14T03:14:01.712Z,100312.66
2022-12-14T03:16:16.245Z,100318.56
2022-12-14T03:18:21.923Z,100319.91
2022-12-14T03:20:29.536Z,100312.41
2022-12-14T03:22:51.083Z,100320.47
2022-12-14T03:24:58.894Z,100316.81
2022-12-14T03:27:15.831Z,100315.25
2022-12-14T03:29:28.376Z,100314.84
2022-12-14T03:31:48.898Z,100321.41
2022-12-14T03:33:56.073Z,100329.28
2022-12-14T03:36:13.334Z,100314.31
2022-12-14T03:38:34.087Z,100322.03
2022-12-14T03:41:12.122Z,100326.06
2022-12-14T03:43:17.584Z,100329.28
2022-12-14T03:45:28.909Z,100323.44
2022-12-14T03:47:59.285Z,100327.66
2022-12-14T03:50:01.114Z,100327.94
2022-12-14T03:52:09.973Z,100319.94
2022-12-14T03:54:20.074Z,100331.25
2022-12-14T03:56:35.735Z,100334.16
2022-12-14T03:59:16.775Z,100330.28
2022-12-14T04:01:46.589Z,100321.81
2022-12-14T04:04:22.557Z,100322.75
2022-12-14T04:06:44.153Z,100323.38
2022-12-14T04:09:08.428Z,100332.03
2022-12-14T04:11:38.866Z,100323.66
2022-12-14T04:14:05.533Z,100325.41
2022-12-14T04:16:33.802Z,100315.00
2022-12-14T04:19:00.510Z,100320.84
2022-12-14T04:21:11.884Z,100321.41
2022-12-14T04:23:41.178Z,100311.06
2022-12-14T04:26:05.762Z,100311.50
2022-12-14T04:28:44.877Z,100315.75
2022-12-14T04:30:49.081Z,100312.94
2022-12-14T04:33:25.142Z,100311.34
2022-12-14T04:35:37.030Z,100310.13
2022-12-14T04:37:42.943Z,100315.75
2022-12-14T04:39:56.639Z,100313.75
2022-12-14T04:42:03.019Z,100315.03
2022-12-14T04:44:24.309Z,100314.22
2022-12-14T04:46:35.192Z,100308.69
2022-12-14T04:49:21.565Z,100318.38
2022-12-14T04:51:41.619Z,100308.88
2022-12-14T04:53:47.213Z,100306.91
2022-12-14T04:56:05.759Z,100313.94
2022-12-14T04:58:38.546Z,100318.06
2022-12-14T05:00:58.275Z,100314.97
2022-12-14T05:03:33.344Z,100305.16
2022-12-14T05:05:42.727Z,100302.50
2022-12-14T05:08:20.631Z,100298.66
2022-12-14T05:10:50.771Z,100294.66
2022-12-14T05:13:05.412Z,100292.13
2022-12-14T05:15:23.569Z,100292.28
2022-12-14T05:17:27.948Z,100291.75
2022-12-14T05:20:00.140Z,100294.91
2022-12-14T05:22:17.886Z,100297.59
2022-12-14T05:24:28.995Z,100296.41
2022-12-14T05:26:32.158Z,100301.88
2022-12-14T05:28:39.143Z,100303.34
2022-12-14T05:30:41.128Z,100302.69
2022-12-14T05:32:43.061Z,100302.78
2022-12-14T05:34:46.053Z,100299.16
2022-12-14T05:36:48.174Z,100301.97
2022-12-14T05:38:52.214Z,100307.00
2022-12-14T05:40:54.167Z,100299.06
2022-12-14T05:43:08.086Z,100301.66
2022-12-14T05:45:29.925Z,100297.47
2022-12-14T05:47:31.855Z,100295.97
2022-12-14T05:49:42.058Z,100298.84
2022-12-14T05:51:44.950Z,100304.47
2022-12-14T05:53:49.910Z,100306.50
2022-12-14T05:55:53.931Z,100300.31
2022-12-14T05:58:03.794Z,100296.09
2022-12-14T06:00:06.086Z,100301.97
2022-12-14T06:02:17.032Z,100304.50
2022-12-14T06:04:21.179Z,100314.72
2022-12-14T06:06:33.799Z,100311.19
2022-12-14T06:08:38.290Z,100321.41
2022-12-14T06:10:50.462Z,100317.16
2022-12-14T06:12:59.150Z,100317.00
2022-12-14T06:15:04.824Z,100328.78
2022-12-14T06:17:14.907Z,100323.38
2022-12-14T06:19:20.933Z,100326.53
2022-12-14T06:21:29.674Z,100320.59
2022-12-14T06:23:31.642Z,100326.28
2022-12-14T06:25:33.657Z,100317.34
2022-12-14T06:27:35.881Z,100313.66
2022-12-14T06:29:47.081Z,100318.38
2022-12-14T06:32:01.805Z,100324.72
2022-12-14T06:34:03.889Z,100326.09
2022-12-14T06:36:06.181Z,100324.75
2022-12-14T06:38:10.309Z,100319.53
2022-12-14T06:40:13.829Z,100324.03
2022-12-14T06:42:28.935Z,100325.19
2022-12-14T06:44:32.097Z,100321.06
2022-12-14T06:46:36.457Z,100317.66
2022-12-14T06:48:38.820Z,100330.16
2022-12-14T06:50:42.806Z,100326.94
2022-12-14T06:52:52.349Z,100330.53
2022-12-14T06:54:59.293Z,100322.25
2022-12-14T06:57:06.573Z,100324.03
2022-12-14T06:59:25.286Z,100327.03
2022-12-14T07:01:34.369Z,100321.53
2022-12-14T07:03:41.365Z,100316.25
2022-12-14T07:05:56.804Z,100327.00
2022-12-14T07:08:12.969Z,100328.97
2022-12-14T07:10:24.057Z,100332.09
2022-12-14T07:12:29.162Z,100333.69
2022-12-14T07:14:36.304Z,100329.63
2022-12-14T07:16:42.590Z,100330.66
2022-12-14T07:18:50.741Z,100332.63
2022-12-14T07:21:22.150Z,100335.97
2022-12-14T07:23:34.272Z,100338.00
2022-12-14T07:25:36.539Z,100338.03
2022-12-14T07:27:38.571Z,100342.41
2022-12-14T07:29:56.692Z,100340.59
2022-12-14T07:32:00.036Z,100334.41
2022-12-14T07:34:13.166Z,100338.47
2022-12-14T07:36:19.637Z,100339.03
2022-12-14T07:38:22.612Z,100342.88
2022-12-14T07:40:25.726Z,100343.06
2022-12-14T07:42:30.667Z,100343.09
2022-12-14T07:44:40.433Z,100336.94
2022-12-14T07:46:54.132Z,100342.34
2022-12-14T07:48:57.983Z,100336.50
2022-12-14T07:51:17.336Z,100330.19
2022-12-14T07:53:37.499Z,100330.34
2022-12-14T07:55:39.444Z,100340.16
2022-12-14T07:57:58.385Z,100327.69
2022-12-14T08:00:14.107Z,100328.94
2022-12-14T08:02:18.188Z,100328.97
2022-12-14T08:04:22.745Z,100326.31
2022-12-14T08:06:40.638Z,100323.84
2022-12-14T08:08:51.953Z,100328.50
2022-12-14T08:10:59.014Z,100322.38
2022-12-14T08:13:02.942Z,100321.53
2022-12-14T08:15:07.597Z,100319.94
2022-12-14T08:17:12.493Z,100332.06
2022-12-14T08:19:20.061Z,100317.34
2022-12-14T08:21:30.229Z,100318.91
2022-12-14T08:23:37.243Z,100315.38
2022-12-14T08:25:39.246Z,100310.84
2022-12-14T08:27:49.064Z,100306.88
2022-12-14T08:29:53.032Z,100310.09
2022-12-14T08:32:04.079Z,100314.81
2022-12-14T08:34:08.642Z,100309.38
2022-12-14T08:36:29.371Z,100310.72
2022-12-14T08:38:33.433Z,100313.88
2022-12-14T08:40:38.832Z,100309.56
2022-12-14T08:42:51.022Z,100316.41
2022-12-14T08:44:53.065Z,100316.69
2022-12-14T08:46:57.187Z,100311.84
2022-12-14T08:49:03.767Z,100315.53
2022-12-14T08:51:10.776Z,100314.47
2022-12-14T08:53:28.923Z,100309.47
2022-12-14T08:55:38.937Z,100309.72
2022-12-14T08:57:41.101Z,100306.44
2022-12-14T09:00:01.215Z,100305.22
2022-12-14T09:02:06.042Z,100302.53
2022-12-14T09:04:09.140Z,100297.78
2022-12-14T09:06:25.280Z,100290.25
2022-12-14T09:08:27.306Z,100288.78
2022-12-14T09:10:30.654Z,100292.13
2022-12-14T09:12:39.681Z,100295.53
2022-12-14T09:14:46.730Z,100295.13
2022-12-14T09:17:01.726Z,100289.38
2022-12-14T09:19:20.221Z,100296.66
2022-12-14T09:21:36.213Z,100287.75
2022-12-14T09:23:40.101Z,100296.78
2022-12-14T09:25:47.474Z,100278.34
2022-12-14T09:27:57.077Z,100282.47
2022-12-14T09:29:59.016Z,100272.72
2022-12-14T09:32:03.069Z,100271.38
2022-12-14T09:34:07.689Z,100262.72
2022-12-14T09:36:28.253Z,100266.34
2022-12-14T09:38:34.945Z,100264.88
2022-12-14T09:40:42.922Z,100269.34
2022-12-14T09:43:06.331Z,100264.13
2022-12-14T09:45:35.648Z,100261.88
2022-12-14T09:48:06.199Z,100259.81
2022-12-14T09:50:17.861Z,100263.34
2022-12-14T09:52:24.221Z,100253.16
2022-12-14T09:54:38.685Z,100254.09
2022-12-14T09:56:47.853Z,100245.00
2022-12-14T09:58:57.055Z,100246.75
2022-12-14T10:01:19.666Z,100245.69
2022-12-14T10:03:46.013Z,100238.09
2022-12-14T10:06:22.264Z,100239.59
2022-12-14T10:08:28.409Z,100228.69
2022-12-14T10:11:15.736Z,100228.06
2022-12-14T10:13:36.810Z,100226.97
2022-12-14T10:16:21.378Z,100224.38
2022-12-14T10:19:03.627Z,100226.47
2022-12-14T10:21:24.114Z,100212.69
2022-12-14T10:23:27.965Z,100218.34
2022-12-14T10:25:34.383Z,100211.28
2022-12-14T10:28:09.161Z,100206.88
2022-12-14T10:30:21.430Z,100207.03
2022-12-14T10:32:41.455Z,100205.69
2022-12-14T10:34:52.622Z,100201.03
2022-12-14T10:37:02.878Z,100195.84
2022-12-14T10:39:24.540Z,100186.88
2022-12-14T10:42:08.203Z,100185.84
2022-12-14T10:44:29.721Z,100184.91
2022-12-14T10:46:42.872Z,100174.22
2022-12-14T10:49:36.927Z,100175.81
2022-12-14T10:51:45.094Z,100173.00
2022-12-14T10:53:52.346Z,100169.94
2022-12-14T10:56:01.248Z,100156.47
2022-12-14T10:58:11.727Z,100153.22
2022-12-14T11:00:23.140Z,100154.16
2022-12-14T11:02:43.144Z,100155.13
2022-12-14T11:05:13.030Z,100150.84
2022-12-14T11:07:21.566Z,100137.56
2022-12-14T11:09:45.304Z,100134.81
2022-12-14T11:11:48.319Z,100137.25
2022-12-14T11:14:10.291Z,100136.47
2022-12-14T11:16:30.288Z,100128.19
2022-12-14T11:18:55.597Z,100125.13
2022-12-14T11:21:06.755Z,100112.25
2022-12-14T11:23:36.619Z,100112.47
2022-12-14T11:25:48.877Z,100120.56
2022-12-14T11:28:22.081Z,100110.06
2022-12-14T11:30:29.237Z,100105.81
2022-12-14T11:32:38.494Z,100101.47
2022-12-14T11:34:54.012Z,100102.22
2022-12-14T11:36:56.073Z,100096.00
2022-12-14T11:39:14.108Z,100090.53
2022-12-14T11:41:22.412Z,100087.53
2022-12-14T11:43:33.968Z,100090.34
2022-12-14T11:45:41.041Z,100089.91
2022-12-14T11:47:45.049Z,100074.44
2022-12-14T11:49:49.738Z,100080.47
2022-12-14T11:52:19.997Z,100079.34
2022-12-14T11:54:22.985Z,100077.31
2022-12-14T11:56:25.791Z,100082.31
2022-12-14T11:58:36.682Z,100083.19
2022-12-14T12:01:03.236Z,100082.31
2022-12-14T12:03:28.324Z,100069.78
2022-12-14T12:05:41.947Z,100069.78
2022-12-14T12:07:50.899Z,100067.47
2022-12-14T12:09:53.425Z,100069.22
2022-12-14T12:12:20.565Z,100061.81
2022-12-14T12:14:35.930Z,100057.44
2022-12-14T12:16:42.435Z,100055.47
2022-12-14T12:19:12.953Z,100056.25
2022-12-14T12:21:30.470Z,100050.03
2022-12-14T12:23:51.698Z,100050.13
2022-12-14T12:25:58.929Z,100049.38
2022-12-14T12:28:09.285Z,100041.59
2022-12-14T12:30:19.634Z,100044.56
2022-12-14T12:32:36.158Z,100043.50
2022-12-14T12:34:57.130Z,100033.19
2022-12-14T12:37:25.812Z,100033.97
2022-12-14T12:39:28.709Z,100035.03
2022-12-14T12:41:59.298Z,100028.28
2022-12-14T12:44:36.452Z,100026.44
2022-12-14T12:47:22.390Z,100024.00
2022-12-14T12:49:15.100Z,100018.88
2022-12-14T12:51:25.625Z,100014.84
2022-12-14T12:53:48.350Z,100018.34
2022-12-14T12:55:59.276Z,100011.25
2022-12-14T12:58:03.392Z,100013.75
2022-12-14T13:00:19.235Z,100006.53
2022-12-14T13:02:42.905Z,99998.88
2022-12-14T13:04:52.434Z,100003.56
2022-12-14T13:07:23.054Z,100003.03
2022-12-14T13:10:14.013Z,99999.72
2022-12-14T13:12:42.605Z,99997.66
2022-12-14T13:14:53.200Z,100005.84
2022-12-14T13:17:01.582Z,100004.53
2022-12-14T13:19:50.643Z,99999.91
2022-12-14T13:22:05.863Z,100006.56
2022-12-14T13:24:17.783Z,99996.97
2022-12-14T13:27:05.692Z,99994.84
2022-12-14T13:29:25.891Z,99986.97
2022-12-14T13:31:55.364Z,99993.25
2022-12-14T13:34:06.997Z,99990.63
2022-12-14T13:36:34.025Z,99986.25
2022-12-14T13:39:09.678Z,99985.91
2022-12-14T13:41:40.281Z,99973.22
2022-12-14T13:44:43.613Z,99977.00
2022-12-14T13:47:05.981Z,99967.28
2022-12-14T13:49:19.570Z,99965.50
2022-12-14T13:51:40.795Z,99965.03
2022-12-14T13:53:57.238Z,99964.78
2022-12-14T13:56:03.034Z,99963.03
2022-12-14T13:58:42.062Z,99954.81
2022-12-14T14:00:51.350Z,99960.09
2022-12-14T14:02:57.597Z,99961.59
2022-12-14T14:05:37.839Z,99956.34
2022-12-14T14:08:03.889Z,99947.88
2022-12-14T14:10:32.305Z,99959.38
2022-12-14T14:12:42.158Z,99950.88
2022-12-14T14:14:55.001Z,99944.63
2022-12-14T14:17:03.705Z,99941.13
2022-12-14T14:19:23.280Z,99939.88
2022-12-14T14:22:32.290Z,99929.88
2022-12-14T14:24:24.544Z,99937.41
2022-12-14T14:26:34.960Z,99942.16
2022-12-14T14:28:44.157Z,99943.75
2022-12-14T14:30:57.169Z,99941.91
2022-12-14T14:33:35.885Z,99934.03
2022-12-14T14:35:51.672Z,99931.41
2022-12-14T14:38:05.194Z,99931.13
2022-12-14T14:40:50.889Z,99930.13
2022-12-14T14:43:30.837Z,99933.50
2022-12-14T14:45:50.578Z,99931.75
2022-12-14T14:47:59.562Z,99923.88
2022-12-14T14:50:22.745Z,99924.13
2022-12-14T14:53:08.454Z,99919.78
2022-12-14T14:58:35.527Z,99918.41
2022-12-14T15:01:21.444Z,99919.75
2022-12-14T15:03:45.914Z,99907.16
2022-12-14T15:05:58.549Z,99906.00
2022-12-14T15:08:03.607Z,99894.16
2022-12-14T15:10:22.266Z,99900.25
2022-12-14T15:12:37.146Z,99891.50
2022-12-14T15:14:48.949Z,99882.03
2022-12-14T15:16:51.249Z,99880.88
2022-12-14T15:18:55.427Z,99873.78
2022-12-14T15:21:20.313Z,99872.44
2022-12-14T15:23:24.841Z,99865.28
2022-12-14T15:25:30.636Z,99865.91
2022-12-14T15:27:35.066Z,99874.53
2022-12-14T15:29:38.105Z,99866.56
2022-12-14T15:31:45.167Z,99862.19
2022-12-14T15:33:53.056Z,99861.28
2022-12-14T15:36:03.705Z,99858.91
2022-12-14T15:38:09.366Z,99865.13
2022-12-14T15:40:16.753Z,99858.50
2022-12-14T15:42:22.912Z,99853.13
2022-12-14T15:44:31.922Z,99856.00
2022-12-14T15:46:41.629Z,99851.63
2022-12-14T15:48:44.693Z,99845.50
2022-12-14T15:51:13.469Z,99852.84
2022-12-14T15:53:29.715Z,99845.72
2022-12-14T15:55:42.520Z,99842.00
2022-12-14T15:57:46.973Z,99845.34
2022-12-14T16:00:00.014Z,99836.34
2022-12-14T16:02:29.533Z,99829.56
2022-12-14T16:04:32.106Z,99830.06
2022-12-14T16:06:40.912Z,99827.66
2022-12-14T16:08:48.792Z,99823.31
2022-12-14T16:10:58.162Z,99824.56
2022-12-14T16:13:24.381Z,99818.38
2022-12-14T16:15:36.254Z,99819.78
2022-12-14T16:17:39.183Z,99818.78
2022-12-14T16:20:00.653Z,99820.66
2022-12-14T16:22:24.622Z,99816.44
2022-12-14T16:24:27.585Z,99812.28
2022-12-14T16:26:38.957Z,99822.06
2022-12-14T16:28:41.258Z,99811.78
2022-12-14T16:31:15.619Z,99810.00
2022-12-14T16:33:21.208Z,99800.66
2022-12-14T16:35:32.433Z,99804.28
2022-12-14T16:37:35.157Z,99801.94
2022-12-14T16:39:40.161Z,99797.06
2022-12-14T16:41:57.381Z,99797.56
2022-12-14T16:44:02.017Z,99798.94
2022-12-14T16:46:04.209Z,99790.78
2022-12-14T16:48:14.378Z,99792.16
2022-12-14T16:50:54.957Z,99782.13
2022-12-14T16:53:21.835Z,99782.13
2022-12-14T16:55:26.565Z,99778.50
2022-12-14T16:57:33.062Z,99771.03
2022-12-14T16:59:46.144Z,99775.63
2022-12-14T17:01:51.145Z,99773.72
2022-12-14T17:04:06.806Z,99774.00
2022-12-14T17:06:19.215Z,99775.00
2022-12-14T17:08:21.917Z,99763.91
2022-12-14T17:10:27.222Z,99751.75
2022-12-14T17:12:30.806Z,99756.75
2022-12-14T17:14:33.208Z,99759.25
2022-12-14T17:16:35.665Z,99752.25
2022-12-14T17:18:41.686Z,99747.44
2022-12-14T17:20:50.159Z,99742.66
2022-12-14T17:23:02.081Z,99744.41
2022-12-14T17:25:05.799Z,99733.13
2022-12-14T17:27:22.707Z,99728.13
2022-12-14T17:29:29.043Z,99730.50
2022-12-14T17:31:32.873Z,99727.69
2022-12-14T17:33:36.746Z,99720.06
2022-12-14T17:35:39.399Z,99719.41
2022-12-14T17:37:42.960Z,99713.34
2022-12-14T17:39:46.327Z,99714.03
2022-12-14T17:41:50.279Z,99703.38
2022-12-14T17:43:57.763Z,99696.06
2022-12-14T17:46:01.796Z,99697.03
2022-12-14T17:48:19.677Z,99689.44
2022-12-14T17:50:26.543Z,99689.78
2022-12-14T17:52:32.572Z,99685.03
2022-12-14T17:54:37.017Z,99678.38
2022-12-14T17:56:39.519Z,99678.84
2022-12-14T17:58:45.607Z,99673.50
2022-12-14T18:01:02.721Z,99670.25
2022-12-14T18:03:11.134Z,99667.50
2022-12-14T18:05:20.061Z,99673.81
2022-12-14T18:07:22.856Z,99674.25
2022-12-14T18:09:27.678Z,99667.41
2022-12-14T18:11:30.563Z,99665.69
2022-12-14T18:13:35.436Z,99654.56
2022-12-14T18:15:50.113Z,99657.59
2022-12-14T18:17:54.230Z,99660.00
2022-12-14T18:20:05.232Z,99658.19
2022-12-14T18:22:10.333Z,99660.03
2022-12-14T18:24:25.908Z,99668.94
2022-12-14T18:26:30.527Z,99672.09
2022-12-14T18:28:37.119Z,99664.94
2022-12-14T18:30:51.432Z,99666.34
2022-12-14T18:32:56.577Z,99667.63
2022-12-14T18:35:00.473Z,99663.19
2022-12-14T18:37:07.248Z,99661.34
2022-12-14T18:39:09.859Z,99656.00
2022-12-14T18:41:19.247Z,99649.03
2022-12-14T18:43:24.949Z,99648.50
2022-12-14T18:45:32.944Z,99644.88
2022-12-14T18:47:41.919Z,99637.88
2022-12-14T18:49:46.356Z,99630.38
2022-12-14T18:51:50.520Z,99637.34
2022-12-14T18:54:00.754Z,99632.34
2022-12-14T18:56:07.920Z,99635.06
2022-12-14T18:58:47.889Z,99628.97
2022-12-14T19:00:55.467Z,99630.28
2022-12-14T19:03:02.908Z,99633.44
2022-12-14T19:05:12.044Z,99629.28
2022-12-14T19:07:16.739Z,99626.66
2022-12-14T19:09:23.370Z,99628.84
2022-12-14T19:11:43.147Z,99627.78
2022-12-14T19:13:48.131Z,99634.19
2022-12-14T19:15:55.561Z,99623.75
2022-12-14T19:17:59.223Z,99633.53
2022-12-14T19:20:03.655Z,99638.22
2022-12-14T19:22:09.195Z,99635.81
2022-12-14T19:24:15.757Z,99642.91
2022-12-14T19:26:20.432Z,99622.63
2022-12-14T19:28:32.842Z,99623.09
2022-12-14T19:30:36.671Z,99629.81
2022-12-14T19:32:42.683Z,99630.06
2022-12-14T19:34:50.494Z,99630.81
2022-12-14T19:36:53.575Z,99626.66
2022-12-14T19:38:57.614Z,99633.84
2022-12-14T19:41:04.746Z,99628.63
2022-12-14T19:43:12.314Z,99628.31
2022-12-14T19:45:17.161Z,99626.56
2022-12-14T19:47:22.003Z,99627.22
2022-12-14T19:49:26.255Z,99617.06
2022-12-14T19:51:32.572Z,99623.94
2022-12-14T19:53:40.175Z,99623.72
2022-12-14T19:55:51.194Z,99610.63
2022-12-14T19:57:55.747Z,99611.28
2022-12-14T20:00:00.920Z,99609.56
2022-12-14T20:02:06.310Z,99608.69
2022-12-14T20:04:11.568Z,99600.41
2022-12-14T20:06:15.278Z,99599.53
2022-12-14T20:08:20.660Z,99586.88
2022-12-14T20:10:31.310Z,99588.97
2022-12-14T20:12:36.550Z,99586.25
2022-12-14T20:14:44.739Z,99580.22
2022-12-14T20:16:53.222Z,99566.84
2022-12-14T20:19:08.059Z,99561.63
2022-12-14T20:21:18.530Z,99550.59
2022-12-14T20:23:29.625Z,99555.41
2022-12-14T20:25:33.089Z,99552.91
2022-12-14T20:27:40.774Z,99566.75
2022-12-14T20:29:45.343Z,99567.47
2022-12-14T20:31:49.662Z,99559.63
2022-12-14T20:33:56.942Z,99562.38
2022-12-14T20:36:01.348Z,99569.44
2022-12-14T20:38:07.255Z,99571.41
2022-12-14T20:40:12.223Z,99565.19
2022-12-14T20:42:19.008Z,99567.28
2022-12-14T20:44:26.632Z,99560.72
2022-12-14T20:46:37.366Z,99555.91
2022-12-14T20:48:48.867Z,99541.97
2022-12-14T20:51:03.958Z,99534.75
2022-12-14T20:53:07.978Z,99534.53
2022-12-14T20:55:13.450Z,99530.69
2022-12-14T20:57:16.629Z,99527.97
2022-12-14T20:59:20.759Z,99527.97
2022-12-14T21:01:26.129Z,99519.91
2022-12-14T21:03:37.692Z,99516.19
2022-12-14T21:06:00.792Z,99504.41
2022-12-14T21:08:03.377Z,99514.44
2022-12-14T21:10:08.372Z,99503.66
2022-12-14T21:12:22.891Z,99499.38
2022-12-14T21:14:27.965Z,99498.94
2022-12-14T21:16:30.937Z,99493.63
2022-12-14T21:18:32.992Z,99503.06
2022-12-14T21:20:36.930Z,99492.84
2022-12-14T21:26:06.093Z,99488.69
2022-12-14T21:28:28.858Z,99486.91
2022-12-14T21:30:36.969Z,99494.31
2022-12-14T21:32:49.369Z,99493.34
2022-12-14T21:35:38.792Z,99498.47
2022-12-14T21:37:41.164Z,99501.47
2022-12-14T21:40:04.059Z,99480.09
2022-12-14T21:42:15.869Z,99489.22
2022-12-14T21:44:30.607Z,99483.34
2022-12-14T21:47:10.814Z,99470.91
2022-12-14T21:49:44.180Z,99478.75
2022-12-14T21:52:18.856Z,99475.69
2022-12-14T21:54:50.591Z,99472.88
2022-12-14T21:57:38.485Z,99471.81
2022-12-14T21:59:51.230Z,99449.25
2022-12-14T22:02:17.764Z,99449.84
2022-12-14T22:04:39.813Z,99441.63
2022-12-14T22:06:46.065Z,99445.44
2022-12-14T22:09:00.418Z,99439.97
2022-12-14T22:11:06.518Z,99445.69
2022-12-14T22:13:33.240Z,99446.34
2022-12-14T22:15:43.693Z,99446.84
2022-12-14T22:17:50.017Z,99436.03
2022-12-14T22:19:54.500Z,99434.50
2022-12-14T22:22:05.846Z,99441.66
2022-12-14T22:24:20.858Z,99442.44
2022-12-14T22:26:24.085Z,99437.97
2022-12-14T22:28:31.162Z,99434.78
2022-12-14T22:30:45.417Z,99435.66
2022-12-14T22:33:00.428Z,99434.34
2022-12-14T22:35:21.638Z,99427.56
2022-12-14T22:37:32.839Z,99422.38
2022-12-14T22:40:01.392Z,99426.59
2022-12-14T22:42:10.751Z,99422.38
2022-12-14T22:44:13.854Z,99418.50
2022-12-14T22:46:38.950Z,99425.16
2022-12-14T22:48:41.901Z,99417.34
2022-12-14T22:50:50.951Z,99412.53
2022-12-14T22:53:02.811Z,99402.31
2022-12-14T22:55:24.555Z,99403.34
2022-12-14T22:57:26.840Z,99400.75
2022-12-14T22:59:53.533Z,99398.81
2022-12-14T23:01:59.319Z,99398.81
2022-12-14T23:04:15.110Z,99387.25
2022-12-14T23:06:21.694Z,99392.47
2022-12-14T23:08:32.719Z,99383.88
2022-12-14T23:11:01.999Z,99383.09
2022-12-14T23:13:24.561Z,99381.69
2022-12-14T23:15:46.298Z,99376.06
2022-12-14T23:18:33.442Z,99378.09
2022-12-14T23:20:59.361Z,99372.88
2022-12-14T23:23:24.612Z,99369.13
2022-12-14T23:26:01.960Z,99365.25
2022-12-14T23:28:32.201Z,99373.56
2022-12-14T23:31:01.879Z,99369.69
2022-12-14T23:33:33.516Z,99352.41
2022-12-14T23:35:53.773Z,99350.28
2022-12-14T23:38:14.384Z,99352.69
2022-12-14T23:40:35.931Z,99352.97
2022-12-14T23:43:35.722Z,99348.38
2022-12-14T23:46:14.670Z,99348.84
2022-12-14T23:48:34.977Z,99348.38
2022-12-14T23:51:13.548Z,99349.59
2022-12-14T23:53:35.822Z,99358.78
2022-12-14T23:56:03.381Z,99352.13
2022-12-14T23:58:26.929Z,99362.72
